Time;durP1;ratioP1;P1;durP2;ratioP2;P2;SDS_P1;SDS_P2;PMS_P1;PMS_P2;Temp;Humidity;BMP_temperature;BMP_pressure;BME280_temperature;BME280_humidity;BME280_pressure;Samples;Min_cycle;Max_cycle;Signal;HPM_P1;HPM_P2
2023/06/07 00:00:50;;;;;;;17.27;9.75;;;10.60;99.90;;;;;;5092343;28;20396;-88
2023/06/07 00:03:16;;;;;;;17.05;8.80;;;10.70;99.90;;;;;;5090773;28;20949;-88
2023/06/07 00:05:43;;;;;;;18.60;10.00;;;10.60;99.90;;;;;;5092379;28;20436;-87
2023/06/07 00:08:09;;;;;;;15.70;8.40;;;10.60;99.90;;;;;;5124687;27;20811;-87
2023/06/07 00:10:36;;;;;;;16.00;8.60;;;10.60;99.90;;;;;;5075243;28;20404;-88
2023/06/07 00:13:02;;;;;;;16.13;8.18;;;10.60;99.90;;;;;;5091371;28;20412;-88
2023/06/07 00:15:28;;;;;;;15.95;7.68;;;10.50;99.90;;;;;;5074042;28;20755;-89
2023/06/07 00:17:55;;;;;;;18.95;8.73;;;10.50;99.90;;;;;;5092271;28;20420;-87
2023/06/07 00:20:20;;;;;;;18.02;8.05;;;10.60;99.90;;;;;;5090498;28;20406;-88
2023/06/07 00:22:47;;;;;;;16.20;7.25;;;10.60;99.90;;;;;;5075052;28;20495;-87
2023/06/07 00:25:13;;;;;;;14.63;7.20;;;11.00;99.90;;;;;;5090019;28;20412;-88
2023/06/07 00:27:38;;;;;;;13.97;7.30;;;10.70;99.90;;;;;;5088052;28;20445;-88
2023/06/07 00:30:05;;;;;;;16.77;6.60;;;10.60;99.90;;;;;;5070335;28;20398;-87
2023/06/07 00:32:31;;;;;;;13.60;6.45;;;10.70;99.90;;;;;;5071030;28;20398;-88
2023/06/07 00:34:57;;;;;;;12.00;5.43;;;10.70;99.90;;;;;;5088397;28;20814;-87
2023/06/07 00:37:23;;;;;;;13.77;6.53;;;10.70;99.90;;;;;;5070164;28;20405;-88
2023/06/07 00:39:48;;;;;;;13.30;6.28;;;10.80;99.90;;;;;;5071368;28;20893;-88
2023/06/07 00:42:14;;;;;;;19.23;7.20;;;11.00;99.90;;;;;;5086454;28;20402;-88
2023/06/07 00:44:40;;;;;;;16.87;6.80;;;10.80;99.90;;;;;;5071370;28;20410;-87
2023/06/07 00:47:06;;;;;;;15.32;6.25;;;10.90;99.90;;;;;;5069841;28;20414;-87
2023/06/07 00:49:31;;;;;;;14.82;5.70;;;10.90;99.90;;;;;;5087634;28;20413;-88
2023/06/07 00:51:57;;;;;;;16.38;6.18;;;10.80;99.90;;;;;;5070871;28;20425;-87
2023/06/07 00:54:23;;;;;;;14.97;7.00;;;10.80;99.90;;;;;;5087021;28;20487;-87
2023/06/07 00:56:50;;;;;;;15.07;6.85;;;10.80;99.90;;;;;;5087365;28;20619;-88
2023/06/07 00:59:20;;;;;;;15.40;6.53;;;10.80;99.90;;;;;;5086434;28;20409;-88
2023/06/07 01:01:48;;;;;;;12.43;5.70;;;10.80;99.90;;;;;;5088115;28;20399;-88
2023/06/07 01:04:14;;;;;;;16.30;6.57;;;10.80;99.90;;;;;;5086026;28;20394;-87
2023/06/07 01:06:40;;;;;;;15.23;6.10;;;10.80;99.90;;;;;;5088006;28;20542;-88
2023/06/07 01:09:12;;;;;;;13.38;6.25;;;10.80;99.90;;;;;;5086560;28;20505;-88
2023/06/07 01:11:42;;;;;;;12.35;5.57;;;10.80;99.90;;;;;;5070258;28;20497;-87
2023/06/07 01:14:10;;;;;;;16.13;6.63;;;10.70;99.90;;;;;;5070938;28;20559;-88
2023/06/07 01:16:38;;;;;;;16.90;6.60;;;10.80;99.90;;;;;;5069099;28;20487;-88
2023/06/07 01:19:05;;;;;;;15.52;6.90;;;10.70;99.90;;;;;;5070957;28;20457;-88
2023/06/07 01:21:33;;;;;;;15.13;7.65;;;10.70;99.90;;;;;;5085632;28;20410;-87
2023/06/07 01:23:59;;;;;;;16.87;6.37;;;10.70;99.90;;;;;;5070606;28;20402;-88
2023/06/07 01:26:27;;;;;;;16.23;7.30;;;10.60;99.90;;;;;;5070033;28;20807;-87
2023/06/07 01:28:54;;;;;;;12.38;5.78;;;10.60;99.90;;;;;;5124263;27;20424;-88
2023/06/07 01:31:22;;;;;;;15.32;6.63;;;10.60;99.90;;;;;;5090526;28;20400;-88
2023/06/07 01:33:49;;;;;;;15.45;6.05;;;10.60;99.90;;;;;;5072172;28;20495;-88
2023/06/07 01:36:15;;;;;;;16.23;6.40;;;10.60;99.90;;;;;;5073628;28;20400;-87
2023/06/07 01:38:43;;;;;;;12.27;5.57;;;10.60;99.90;;;;;;5088576;28;20766;-89
2023/06/07 01:41:09;;;;;;;13.05;5.70;;;10.60;99.90;;;;;;5073460;28;20424;-88
2023/06/07 01:43:36;;;;;;;13.35;5.68;;;10.60;99.90;;;;;;5072281;28;20453;-87
2023/06/07 01:46:03;;;;;;;14.88;6.35;;;10.60;99.90;;;;;;5073331;28;20397;-87
2023/06/07 01:48:29;;;;;;;13.73;5.97;;;10.60;99.90;;;;;;5090359;28;20821;-86
2023/06/07 01:50:55;;;;;;;13.82;5.32;;;10.60;99.90;;;;;;5089036;28;20400;-87
2023/06/07 01:53:20;;;;;;;14.17;6.20;;;10.70;99.90;;;;;;5073173;28;20939;-88
2023/06/07 01:55:52;;;;;;;16.20;6.05;;;10.70;99.90;;;;;;5071687;28;20412;-87
2023/06/07 01:58:32;;;;;;;15.77;6.00;;;10.70;99.90;;;;;;5090169;28;20767;-87
2023/06/07 02:01:05;;;;;;;14.05;6.00;;;10.70;99.90;;;;;;5088623;28;20405;-86
2023/06/07 02:03:35;;;;;;;13.45;6.20;;;10.80;99.90;;;;;;5072307;28;20407;-88
2023/06/07 02:06:06;;;;;;;12.43;5.80;;;10.80;99.90;;;;;;5089852;28;20408;-87
2023/06/07 02:08:52;;;;;;;15.07;5.73;;;10.80;99.90;;;;;;5086893;28;20464;-88
2023/06/07 02:11:22;;;;;;;16.52;6.38;;;10.90;99.90;;;;;;5089933;28;20424;-87
2023/06/07 02:13:49;;;;;;;14.68;5.78;;;10.90;99.90;;;;;;5088499;28;20972;-88
2023/06/07 02:16:15;;;;;;;15.43;6.25;;;10.90;99.90;;;;;;5072310;28;20400;-87
2023/06/07 02:18:41;;;;;;;15.30;5.80;;;10.90;99.90;;;;;;5072360;28;20420;-88
2023/06/07 02:21:08;;;;;;;15.57;5.93;;;10.90;99.90;;;;;;5088363;28;20491;-88
2023/06/07 02:23:34;;;;;;;15.55;6.47;;;11.00;99.90;;;;;;5089705;28;20431;-88
2023/06/07 02:26:00;;;;;;;17.47;5.77;;;11.00;99.90;;;;;;5104832;28;20811;-87
2023/06/07 02:28:26;;;;;;;15.43;6.07;;;11.00;99.90;;;;;;5072463;28;20775;-88
2023/06/07 02:30:55;;;;;;;15.40;6.25;;;11.00;99.90;;;;;;5088122;28;20404;-87
2023/06/07 02:33:21;;;;;;;13.53;5.50;;;11.10;99.90;;;;;;5072622;28;20883;-88
2023/06/07 02:35:47;;;;;;;15.00;6.00;;;11.10;99.90;;;;;;5071521;28;20963;-88
2023/06/07 02:38:13;;;;;;;14.40;5.50;;;11.10;99.90;;;;;;5071479;28;20519;-87
2023/06/07 02:40:39;;;;;;;15.82;5.47;;;11.10;99.90;;;;;;5089682;28;20740;-88
2023/06/07 02:43:05;;;;;;;14.20;5.63;;;11.20;99.90;;;;;;5070984;28;20415;-88
2023/06/07 02:45:30;;;;;;;15.03;4.90;;;11.20;99.90;;;;;;5089188;28;20502;-89
2023/06/07 02:47:56;;;;;;;15.18;5.32;;;11.20;99.90;;;;;;5104568;28;20809;-88
2023/06/07 02:50:22;;;;;;;16.75;5.03;;;11.20;99.90;;;;;;5072176;28;20751;-88
2023/06/07 02:52:48;;;;;;;13.43;4.78;;;11.20;99.90;;;;;;5087962;28;20409;-87
2023/06/07 02:55:13;;;;;;;14.47;4.40;;;11.30;99.90;;;;;;5088699;28;20412;-88
2023/06/07 02:57:40;;;;;;;13.55;4.50;;;11.30;99.90;;;;;;5088686;28;20472;-88
2023/06/07 03:00:11;;;;;;;12.73;4.43;;;11.30;99.90;;;;;;5087404;28;20455;-88
2023/06/07 03:02:41;;;;;;;11.57;3.83;;;11.30;99.90;;;;;;5089130;28;20392;-88
2023/06/07 03:05:07;;;;;;;14.60;3.97;;;11.30;99.90;;;;;;5121506;27;20759;-88
2023/06/07 03:07:40;;;;;;;13.32;4.18;;;11.30;99.90;;;;;;5089082;28;20420;-88
2023/06/07 03:10:06;;;;;;;11.18;3.83;;;11.30;99.90;;;;;;5087954;28;20921;-87
2023/06/07 03:12:32;;;;;;;14.83;4.40;;;11.30;99.90;;;;;;5088836;28;20500;-88
2023/06/07 03:14:57;;;;;;;14.98;4.45;;;11.30;99.90;;;;;;5071887;28;20575;-88
2023/06/07 03:17:23;;;;;;;10.80;3.70;;;11.40;99.90;;;;;;5087127;28;20435;-88
2023/06/07 03:19:49;;;;;;;14.30;4.80;;;11.30;99.90;;;;;;5071731;28;20396;-88
2023/06/07 03:22:15;;;;;;;14.40;5.00;;;11.30;99.90;;;;;;5087180;28;20435;-88
2023/06/07 03:24:41;;;;;;;13.80;5.70;;;11.50;99.90;;;;;;5071958;28;20512;-87
2023/06/07 03:27:10;;;;;;;15.77;5.95;;;11.60;99.90;;;;;;5086754;28;20823;-88
2023/06/07 03:29:38;;;;;;;16.63;6.28;;;11.40;99.90;;;;;;5071549;28;22312;-88
2023/06/07 03:32:05;;;;;;;16.88;5.93;;;11.40;99.90;;;;;;5104446;28;20495;-87
2023/06/07 03:34:32;;;;;;;14.68;6.22;;;11.40;99.90;;;;;;5121756;27;20412;-86
2023/06/07 03:36:58;;;;;;;15.80;6.10;;;11.40;99.90;;;;;;5071847;28;20813;-88
2023/06/07 03:39:24;;;;;;;14.20;5.25;;;11.40;99.90;;;;;;5070029;28;20484;-88
2023/06/07 03:41:49;;;;;;;14.80;5.60;;;11.50;99.90;;;;;;5088497;28;20994;-88
2023/06/07 03:44:15;;;;;;;12.40;4.70;;;11.50;99.90;;;;;;5086573;28;20477;-88
2023/06/07 03:46:41;;;;;;;10.32;3.55;;;11.50;99.90;;;;;;5071628;28;20400;-88
2023/06/07 03:49:07;;;;;;;15.10;4.70;;;11.50;99.90;;;;;;5070382;28;20432;-88
2023/06/07 03:51:33;;;;;;;12.75;3.88;;;11.60;99.90;;;;;;5087946;28;20423;-88
2023/06/07 03:53:59;;;;;;;12.18;3.85;;;11.60;99.90;;;;;;5071578;28;20926;-88
2023/06/07 03:56:27;;;;;;;14.25;4.47;;;11.70;99.90;;;;;;5070070;28;20428;-88
2023/06/07 03:58:54;;;;;;;10.32;3.78;;;11.70;99.90;;;;;;5071368;28;21003;-88
2023/06/07 04:01:25;;;;;;;13.07;4.55;;;11.70;99.90;;;;;;5086551;28;20436;-87
2023/06/07 04:03:51;;;;;;;14.30;3.88;;;11.80;99.90;;;;;;5088600;28;20448;-88
2023/06/07 04:06:20;;;;;;;13.63;3.63;;;11.80;99.90;;;;;;5086701;28;20400;-87
2023/06/07 04:08:48;;;;;;;11.02;3.88;;;12.00;99.90;;;;;;5088207;28;20455;-89
2023/06/07 04:11:14;;;;;;;11.13;3.83;;;11.90;99.90;;;;;;5067460;28;20405;-88
2023/06/07 04:13:42;;;;;;;12.37;3.60;;;12.20;99.90;;;;;;5069836;28;20808;-88
2023/06/07 04:16:07;;;;;;;11.48;3.80;;;12.00;99.90;;;;;;5122577;28;20783;-88
2023/06/07 04:18:33;;;;;;;12.80;3.72;;;12.10;99.90;;;;;;5086390;28;20409;-88
2023/06/07 04:20:59;;;;;;;10.30;3.77;;;12.10;99.90;;;;;;5105523;28;20427;-88
2023/06/07 04:23:24;;;;;;;15.70;4.40;;;12.10;99.90;;;;;;5086862;28;20644;-87
2023/06/07 04:25:54;;;;;;;11.40;4.43;;;12.20;99.90;;;;;;5071371;28;20400;-88
2023/06/07 04:28:23;;;;;;;12.27;4.50;;;12.30;99.90;;;;;;5070155;28;20441;-87
2023/06/07 04:30:51;;;;;;;13.00;5.15;;;12.30;99.90;;;;;;5071099;28;20422;-88
2023/06/07 04:33:20;;;;;;;12.67;4.60;;;12.80;99.90;;;;;;5091935;28;20396;-88
2023/06/07 04:35:50;;;;;;;12.30;4.00;;;12.40;99.90;;;;;;5090046;28;20404;-88
2023/06/07 04:38:20;;;;;;;9.05;3.45;;;12.40;99.90;;;;;;5075169;28;20435;-88
2023/06/07 04:40:50;;;;;;;11.23;4.30;;;12.70;99.90;;;;;;5090341;28;20399;-88
2023/06/07 04:43:19;;;;;;;12.52;4.40;;;12.50;99.90;;;;;;5074476;28;20401;-88
2023/06/07 04:45:55;;;;;;;10.48;4.55;;;12.50;99.90;;;;;;5091280;28;20418;-88
2023/06/07 04:48:22;;;;;;;11.63;4.47;;;12.60;99.90;;;;;;5073269;28;20452;-88
2023/06/07 04:50:49;;;;;;;15.48;4.75;;;12.60;99.90;;;;;;5074882;28;20414;-87
2023/06/07 04:53:19;;;;;;;14.35;4.70;;;12.80;99.90;;;;;;5072765;28;20491;-88
2023/06/07 04:55:46;;;;;;;13.10;4.85;;;12.70;99.90;;;;;;5074760;28;20408;-88
2023/06/07 04:58:11;;;;;;;13.60;4.93;;;12.80;99.90;;;;;;5073045;28;20760;-88
2023/06/07 05:00:39;;;;;;;11.30;3.92;;;12.80;99.90;;;;;;5091088;28;20399;-87
2023/06/07 05:03:08;;;;;;;11.23;4.20;;;12.80;99.90;;;;;;5074054;28;20748;-87
2023/06/07 05:05:34;;;;;;;11.05;3.88;;;12.90;99.90;;;;;;5073126;28;20415;-87
2023/06/07 05:08:01;;;;;;;11.65;4.97;;;13.00;99.90;;;;;;5074718;28;20805;-88
2023/06/07 05:10:26;;;;;;;14.30;5.00;;;13.00;99.90;;;;;;5072419;28;20396;-89
2023/06/07 05:12:52;;;;;;;12.48;5.57;;;13.10;99.90;;;;;;5091516;28;20400;-87
2023/06/07 05:15:17;;;;;;;11.67;4.67;;;13.40;99.90;;;;;;5089588;28;21221;-87
2023/06/07 05:17:45;;;;;;;12.00;4.65;;;13.20;99.90;;;;;;5073999;28;20429;-87
2023/06/07 05:20:13;;;;;;;12.18;4.25;;;13.20;99.90;;;;;;5124301;27;20401;-87
2023/06/07 05:22:39;;;;;;;9.18;4.38;;;13.20;99.90;;;;;;5073152;28;20418;-88
2023/06/07 05:25:06;;;;;;;11.30;4.18;;;13.20;99.90;;;;;;5090949;28;20491;-88
2023/06/07 05:27:32;;;;;;;9.75;4.18;;;13.30;99.90;;;;;;5088727;28;20799;-88
2023/06/07 05:29:58;;;;;;;10.70;4.28;;;13.30;99.90;;;;;;5107801;28;20476;-88
2023/06/07 05:32:23;;;;;;;11.13;3.87;;;13.50;99.90;;;;;;5089563;28;20435;-88
2023/06/07 05:34:51;;;;;;;10.53;3.93;;;13.50;99.90;;;;;;5074343;28;20415;-88
2023/06/07 05:37:18;;;;;;;8.88;3.47;;;13.80;99.90;;;;;;5089396;28;20508;-86
2023/06/07 05:39:45;;;;;;;12.85;3.38;;;13.70;99.90;;;;;;5072882;28;20400;-88
2023/06/07 05:42:11;;;;;;;11.65;2.90;;;13.80;99.90;;;;;;5124457;27;20439;-88
2023/06/07 05:44:37;;;;;;;7.50;2.40;;;13.90;99.90;;;;;;5071731;28;20454;-88
2023/06/07 05:47:03;;;;;;;8.03;2.10;;;13.90;99.90;;;;;;5090590;28;20722;-88
2023/06/07 05:49:29;;;;;;;9.35;2.10;;;14.00;99.90;;;;;;5088539;28;20428;-88
2023/06/07 05:51:54;;;;;;;13.15;2.28;;;14.00;99.90;;;;;;5107652;28;20400;-88
2023/06/07 05:54:20;;;;;;;7.90;2.30;;;14.70;99.90;;;;;;5089051;28;20438;-88
2023/06/07 05:56:46;;;;;;;8.90;2.50;;;14.10;99.90;;;;;;5124544;27;20400;-88
2023/06/07 05:59:12;;;;;;;8.90;2.17;;;14.00;99.90;;;;;;5072746;28;20461;-89
2023/06/07 06:01:37;;;;;;;9.13;2.20;;;14.00;99.90;;;;;;5089053;28;20617;-88
2023/06/07 06:04:03;;;;;;;9.10;2.05;;;14.10;99.90;;;;;;5090128;28;20412;-89
2023/06/07 06:06:29;;;;;;;10.73;2.47;;;14.10;99.90;;;;;;5071396;28;20758;-88
2023/06/07 06:08:54;;;;;;;10.83;2.70;;;14.20;99.90;;;;;;5089885;28;20455;-89
2023/06/07 06:11:20;;;;;;;8.65;2.53;;;14.30;99.90;;;;;;5104784;28;20457;-87
2023/06/07 06:13:48;;;;;;;7.38;2.30;;;14.40;99.90;;;;;;5072937;28;20399;-89
2023/06/07 06:16:14;;;;;;;8.82;2.30;;;14.30;99.90;;;;;;5088439;28;20452;-87
2023/06/07 06:18:42;;;;;;;8.43;2.05;;;14.40;99.90;;;;;;5071970;28;20417;-87
2023/06/07 06:21:08;;;;;;;10.38;2.47;;;14.50;99.90;;;;;;5089721;28;20767;-88
2023/06/07 06:23:35;;;;;;;8.73;1.70;;;14.50;99.90;;;;;;5121808;27;20408;-88
2023/06/07 06:26:01;;;;;;;8.15;2.25;;;14.60;99.90;;;;;;5090033;28;20397;-88
2023/06/07 06:28:28;;;;;;;9.80;2.17;;;14.70;99.90;;;;;;5087475;28;20428;-88
2023/06/07 06:30:54;;;;;;;8.60;2.08;;;14.80;99.90;;;;;;5124141;27;20439;-89
2023/06/07 06:33:19;;;;;;;11.10;2.67;;;15.00;99.90;;;;;;5105398;28;21294;-87
2023/06/07 06:35:46;;;;;;;10.10;2.00;;;15.00;99.90;;;;;;5089443;28;20401;-89
2023/06/07 06:38:12;;;;;;;9.50;2.80;;;15.00;99.90;;;;;;5071934;28;20416;-86
2023/06/07 06:40:38;;;;;;;9.15;2.20;;;15.00;99.90;;;;;;5088309;28;20748;-89
2023/06/07 06:43:04;;;;;;;7.47;2.13;;;15.10;99.90;;;;;;5089462;28;20408;-88
2023/06/07 06:45:29;;;;;;;7.45;2.28;;;15.20;99.90;;;;;;5070882;28;20404;-90
2023/06/07 06:47:55;;;;;;;9.67;2.30;;;15.30;99.90;;;;;;5072503;28;20428;-88
2023/06/07 06:50:20;;;;;;;9.88;2.20;;;15.30;99.90;;;;;;5087802;28;20396;-89
2023/06/07 06:52:46;;;;;;;8.20;2.17;;;15.40;99.90;;;;;;5088999;28;20449;-89
2023/06/07 06:55:12;;;;;;;8.68;2.30;;;15.80;99.90;;;;;;5087605;28;20400;-89
2023/06/07 06:57:37;;;;;;;8.07;2.37;;;15.70;99.90;;;;;;5088717;28;20640;-88
2023/06/07 07:00:06;;;;;;;9.15;2.50;;;15.90;99.90;;;;;;5105869;28;20408;-85
2023/06/07 07:02:32;;;;;;;10.67;2.33;;;16.00;99.90;;;;;;5087480;28;20456;-88
2023/06/07 07:04:58;;;;;;;8.82;2.67;;;16.10;99.90;;;;;;5123073;27;20790;-89
2023/06/07 07:07:23;;;;;;;10.82;2.35;;;16.40;99.90;;;;;;5086910;28;20396;-90
2023/06/07 07:09:49;;;;;;;9.30;2.30;;;16.90;99.90;;;;;;5089071;28;20450;-89
2023/06/07 07:12:15;;;;;;;7.20;2.20;;;16.40;99.90;;;;;;5087622;28;20411;-88
2023/06/07 07:14:41;;;;;;;8.75;2.17;;;16.40;99.90;;;;;;5088716;28;20400;-88
2023/06/07 07:17:07;;;;;;;7.93;2.63;;;16.50;99.90;;;;;;5071866;28;20400;-88
2023/06/07 07:19:32;;;;;;;8.57;2.33;;;16.60;99.90;;;;;;5070741;28;20495;-89
2023/06/07 07:21:58;;;;;;;7.85;2.08;;;16.50;99.90;;;;;;5088837;28;20492;-88
2023/06/07 07:24:23;;;;;;;8.97;2.40;;;16.60;99.90;;;;;;5104120;28;20423;-89
2023/06/07 07:26:50;;;;;;;8.70;2.35;;;16.90;99.90;;;;;;5088818;28;20420;-88
2023/06/07 07:29:15;;;;;;;8.73;2.25;;;16.80;99.90;;;;;;5070109;28;20490;-89
2023/06/07 07:31:41;;;;;;;9.67;2.37;;;16.80;99.90;;;;;;5072082;28;20396;-88
2023/06/07 07:34:08;;;;;;;7.03;2.33;;;16.80;99.90;;;;;;5070377;28;20479;-88
2023/06/07 07:36:34;;;;;;;8.73;2.33;;;16.90;99.90;;;;;;5122340;28;20443;-90
2023/06/07 07:39:04;;;;;;;9.00;2.13;;;17.00;99.90;;;;;;5071620;28;20412;-88
2023/06/07 07:41:33;;;;;;;9.90;2.60;;;17.10;99.90;;;;;;5087281;28;20413;-89
2023/06/07 07:43:59;;;;;;;7.78;2.20;;;17.10;99.90;;;;;;5089249;28;20445;-89
2023/06/07 07:46:25;;;;;;;7.43;2.00;;;17.10;99.90;;;;;;5069898;28;20821;-89
2023/06/07 07:48:50;;;;;;;9.27;2.33;;;17.20;99.90;;;;;;5105542;28;20428;-88
2023/06/07 07:51:16;;;;;;;6.80;1.83;;;17.40;99.90;;;;;;5086843;28;20499;-88
2023/06/07 07:53:42;;;;;;;9.63;2.35;;;17.70;99.90;;;;;;5071342;28;20400;-89
2023/06/07 07:56:08;;;;;;;8.50;1.93;;;18.20;99.90;;;;;;5088297;28;20491;-88
2023/06/07 07:58:35;;;;;;;6.65;1.80;;;18.80;99.90;;;;;;5121113;27;20967;-89
2023/06/07 08:01:01;;;;;;;8.02;2.22;;;18.50;97.80;;;;;;5088774;28;20761;-89
2023/06/07 08:03:27;;;;;;;7.75;2.20;;;18.40;99.00;;;;;;5086611;28;20404;-89
2023/06/07 08:05:53;;;;;;;7.93;2.22;;;18.30;98.60;;;;;;5091166;28;20389;-87
2023/06/07 08:08:19;;;;;;;8.30;2.20;;;17.90;99.90;;;;;;5125279;27;20455;-89
2023/06/07 08:10:46;;;;;;;9.25;2.50;;;17.90;99.90;;;;;;5075703;28;20408;-88
2023/06/07 08:13:12;;;;;;;7.88;2.15;;;18.20;99.90;;;;;;5091555;28;20396;-89
2023/06/07 08:15:38;;;;;;;7.28;2.15;;;18.30;99.90;;;;;;5091332;28;20412;-90
2023/06/07 08:18:04;;;;;;;7.90;2.22;;;18.60;99.90;;;;;;5109233;28;20407;-89
2023/06/07 08:20:30;;;;;;;8.57;2.40;;;18.60;99.90;;;;;;5107817;28;20412;-89
2023/06/07 08:22:55;;;;;;;8.60;2.30;;;18.60;99.90;;;;;;5109305;28;20404;-88
2023/06/07 08:25:21;;;;;;;7.77;2.00;;;18.60;99.90;;;;;;5090785;28;20404;-88
2023/06/07 08:27:47;;;;;;;8.07;2.25;;;18.60;99.90;;;;;;5074850;28;20432;-89
2023/06/07 08:30:12;;;;;;;8.73;2.40;;;18.20;99.20;;;;;;5107595;28;20898;-88
2023/06/07 08:32:38;;;;;;;8.98;2.22;;;18.10;99.90;;;;;;5091574;28;20736;-89
2023/06/07 08:35:06;;;;;;;9.15;2.20;;;18.10;99.90;;;;;;5074625;28;20443;-89
2023/06/07 08:37:31;;;;;;;7.95;2.45;;;18.10;99.90;;;;;;5090198;28;20412;-89
2023/06/07 08:39:57;;;;;;;9.93;2.97;;;18.20;99.90;;;;;;5092007;28;20413;-89
2023/06/07 08:42:22;;;;;;;8.57;2.72;;;18.20;99.60;;;;;;5090250;28;20408;-89
2023/06/07 08:44:50;;;;;;;8.87;2.30;;;18.80;99.90;;;;;;5074684;28;20480;-90
2023/06/07 08:47:17;;;;;;;8.07;2.45;;;18.50;99.90;;;;;;5124183;27;20407;-87
2023/06/07 08:49:44;;;;;;;10.03;2.43;;;18.70;99.90;;;;;;5074533;28;20421;-88
2023/06/07 08:52:10;;;;;;;7.25;2.40;;;18.70;99.90;;;;;;5091169;28;20910;-89
2023/06/07 08:54:41;;;;;;;6.78;2.00;;;18.80;99.50;;;;;;5090717;28;20445;-89
2023/06/07 08:57:07;;;;;;;6.90;2.33;;;19.00;96.30;;;;;;5075114;28;20400;-89
2023/06/07 08:59:34;;;;;;;7.25;2.13;;;19.10;99.90;;;;;;5073139;28;20954;-88
2023/06/07 09:02:01;;;;;;;7.50;2.20;;;18.80;99.90;;;;;;5074529;28;20389;-88
2023/06/07 09:04:27;;;;;;;7.90;2.27;;;19.00;99.90;;;;;;5089597;28;21035;-88
2023/06/07 09:06:53;;;;;;;8.80;2.53;;;19.30;99.90;;;;;;5091936;28;20428;-89
2023/06/07 09:09:19;;;;;;;7.90;2.53;;;19.30;99.90;;;;;;5090260;28;20521;-88
2023/06/07 09:11:50;;;;;;;7.45;2.47;;;19.40;95.70;;;;;;5073907;28;20473;-89
2023/06/07 09:14:16;;;;;;;9.13;2.50;;;19.50;95.70;;;;;;5091373;28;20427;-87
2023/06/07 09:16:55;;;;;;;8.07;2.85;;;19.50;99.40;;;;;;5071967;28;20875;-90
2023/06/07 09:19:37;;;;;;;6.87;2.40;;;19.50;97.20;;;;;;5091424;28;20404;-89
2023/06/07 09:22:04;;;;;;;7.90;2.88;;;19.50;95.80;;;;;;5089415;28;20858;-88
2023/06/07 09:24:30;;;;;;;8.00;2.78;;;19.70;99.90;;;;;;5073676;28;20482;-89
2023/06/07 09:26:56;;;;;;;7.43;2.53;;;19.70;97.70;;;;;;5124505;27;20432;-88
2023/06/07 09:29:22;;;;;;;7.25;2.60;;;20.00;95.80;;;;;;5072540;28;20448;-89
2023/06/07 09:31:48;;;;;;;8.63;2.63;;;20.50;93.00;;;;;;5090805;28;20460;-89
2023/06/07 09:34:26;;;;;;;7.07;2.42;;;20.30;94.80;;;;;;5106418;28;20485;-90
2023/06/07 09:36:56;;;;;;;8.70;2.50;;;20.50;98.40;;;;;;5091120;28;20785;-89
2023/06/07 09:39:30;;;;;;;8.30;2.88;;;20.50;92.60;;;;;;5123875;27;20416;-90
2023/06/07 09:41:57;;;;;;;7.68;3.10;;;20.70;94.20;;;;;;5072976;28;20404;-89
2023/06/07 09:44:30;;;;;;;9.05;2.97;;;20.50;78.60;;;;;;5090591;28;20412;-89
2023/06/07 09:46:57;;;;;;;7.25;2.80;;;20.40;94.60;;;;;;5072886;28;20440;-90
2023/06/07 09:49:34;;;;;;;9.57;2.90;;;20.50;94.30;;;;;;5073709;28;20853;-90
2023/06/07 09:52:04;;;;;;;10.05;3.15;;;20.70;97.40;;;;;;5089139;28;20412;-90
2023/06/07 09:54:38;;;;;;;7.72;2.97;;;20.40;92.20;;;;;;5090457;28;20408;-89
2023/06/07 09:57:09;;;;;;;8.05;2.67;;;20.60;96.30;;;;;;5089732;28;20470;-90
2023/06/07 09:59:36;;;;;;;9.55;2.65;;;21.00;93.90;;;;;;5089608;28;20429;-89
2023/06/07 10:02:02;;;;;;;7.28;2.75;;;21.10;93.50;;;;;;5124862;27;20488;-89
2023/06/07 10:04:28;;;;;;;8.38;2.17;;;21.40;91.90;;;;;;5088979;28;20449;-90
2023/06/07 10:06:57;;;;;;;6.28;2.17;;;21.70;73.30;;;;;;5090471;28;20393;-90
2023/06/07 10:09:28;;;;;;;8.52;2.70;;;21.80;88.20;;;;;;5089015;28;20600;-91
2023/06/07 10:11:55;;;;;;;8.13;2.90;;;22.10;77.50;;;;;;5073194;28;20944;-90
2023/06/07 10:14:28;;;;;;;7.93;2.55;;;22.00;65.00;;;;;;5072327;28;20405;-89
2023/06/07 10:17:11;;;;;;;8.85;2.60;;;21.90;73.50;;;;;;5089298;28;20481;-91
2023/06/07 10:19:43;;;;;;;8.07;3.08;;;22.00;71.30;;;;;;5073152;28;20400;-90
2023/06/07 10:22:16;;;;;;;7.22;2.85;;;22.20;69.20;;;;;;5071567;28;20492;-89
2023/06/07 10:25:10;;;;;;;6.85;2.60;;;22.30;72.80;;;;;;5090089;28;20750;-89
2023/06/07 10:27:55;;;;;;;8.55;2.28;;;22.70;80.50;;;;;;5089153;28;20423;-89
2023/06/07 10:30:23;;;;;;;8.20;3.17;;;23.00;65.40;;;;;;5071205;28;20416;-91
2023/06/07 10:32:52;;;;;;;10.45;3.10;;;23.60;77.30;;;;;;5073426;28;20431;-90
2023/06/07 10:35:19;;;;;;;8.27;3.00;;;23.40;56.10;;;;;;5071109;28;20412;-89
2023/06/07 10:37:50;;;;;;;7.75;3.00;;;23.90;63.60;;;;;;5089753;28;20400;-91
2023/06/07 10:40:16;;;;;;;8.47;3.23;;;23.70;60.80;;;;;;5089008;28;20906;-89
2023/06/07 10:42:44;;;;;;;6.88;2.70;;;23.80;62.40;;;;;;5071868;28;20399;-89
2023/06/07 10:45:17;;;;;;;7.80;3.07;;;24.00;63.30;;;;;;5072888;28;20483;-90
2023/06/07 10:47:44;;;;;;;9.77;2.58;;;24.10;53.70;;;;;;5088474;28;20419;-90
2023/06/07 10:50:28;;;;;;;7.57;2.83;;;24.50;59.30;;;;;;5090094;28;20794;-91
2023/06/07 10:53:01;;;;;;;9.27;3.43;;;24.90;54.40;;;;;;5087952;28;20412;-89
2023/06/07 10:55:31;;;;;;;8.75;3.60;;;25.20;57.50;;;;;;5072096;28;20914;-90
2023/06/07 10:58:00;;;;;;;9.10;4.00;;;25.60;54.40;;;;;;5122863;27;20412;-88
2023/06/07 11:00:30;;;;;;;8.23;4.00;;;25.80;50.60;;;;;;5088558;28;20408;-89
2023/06/07 11:03:24;;;;;;;8.10;4.10;;;25.60;49.30;;;;;;5072554;28;20828;-90
2023/06/07 11:05:53;;;;;;;8.53;3.83;;;25.30;49.40;;;;;;5063376;28;20936;-91
2023/06/07 11:08:30;;;;;;;7.40;3.08;;;25.70;53.40;;;;;;5089235;28;20413;-90
2023/06/07 11:11:00;;;;;;;10.07;3.92;;;26.00;51.10;;;;;;5067477;28;20448;-90
2023/06/07 11:13:26;;;;;;;7.90;4.00;;;26.00;49.20;;;;;;5070958;28;20447;-89
2023/06/07 11:15:52;;;;;;;8.88;4.22;;;26.00;47.50;;;;;;5089206;28;20412;-91
2023/06/07 11:18:18;;;;;;;9.67;4.67;;;26.00;48.20;;;;;;5104471;28;20419;-91
2023/06/07 11:20:44;;;;;;;8.48;3.30;;;26.20;46.60;;;;;;5071894;28;20423;-90
2023/06/07 11:23:22;;;;;;;9.82;3.17;;;26.40;49.40;;;;;;5070429;28;20412;-89
2023/06/07 11:25:50;;;;;;;6.90;2.83;;;26.80;48.90;;;;;;5088733;28;20413;-92
2023/06/07 11:28:20;;;;;;;7.95;3.50;;;27.30;49.30;;;;;;5071555;28;20432;-91
2023/06/07 11:30:47;;;;;;;7.27;3.33;;;27.60;45.00;;;;;;5087624;28;20482;-91
2023/06/07 11:33:16;;;;;;;8.63;3.30;;;27.60;43.40;;;;;;5089303;28;20400;-91
2023/06/07 11:35:42;;;;;;;9.38;2.90;;;27.40;45.20;;;;;;5070064;28;20416;-91
2023/06/07 11:38:08;;;;;;;6.47;2.60;;;27.30;44.10;;;;;;5106245;28;20406;-91
2023/06/07 11:40:34;;;;;;;7.07;2.80;;;27.20;44.10;;;;;;5070307;28;20393;-91
2023/06/07 11:43:02;;;;;;;7.45;2.83;;;27.30;44.40;;;;;;5088587;28;20446;-91
2023/06/07 11:45:27;;;;;;;6.45;2.60;;;27.50;43.20;;;;;;5071795;28;20415;-91
2023/06/07 11:47:57;;;;;;;6.25;2.38;;;27.40;44.20;;;;;;5087500;28;20424;-91
2023/06/07 11:50:23;;;;;;;6.30;2.35;;;27.40;46.10;;;;;;5088652;28;20399;-89
2023/06/07 11:52:49;;;;;;;7.85;2.65;;;27.50;43.20;;;;;;5069787;28;20467;-89
2023/06/07 11:55:16;;;;;;;6.57;2.53;;;27.60;43.00;;;;;;5122786;27;20457;-89
2023/06/07 11:57:44;;;;;;;7.40;2.42;;;27.50;43.50;;;;;;5087243;28;20798;-90
2023/06/07 12:00:14;;;;;;;7.20;2.72;;;27.80;45.30;;;;;;5071876;28;20397;-91
2023/06/07 12:02:40;;;;;;;7.30;2.65;;;27.90;44.50;;;;;;5088564;28;20396;-89
2023/06/07 12:05:09;;;;;;;6.88;2.70;;;28.20;44.70;;;;;;5087846;28;20454;-91
2023/06/07 12:07:35;;;;;;;7.15;2.78;;;28.50;41.00;;;;;;5071329;28;20998;-91
2023/06/07 12:10:05;;;;;;;7.63;2.97;;;28.70;42.70;;;;;;5087119;28;20414;-90
2023/06/07 12:12:31;;;;;;;8.07;3.10;;;28.80;42.50;;;;;;5088838;28;20888;-90
2023/06/07 12:15:06;;;;;;;9.40;3.90;;;28.40;44.30;;;;;;5086916;28;20446;-89
2023/06/07 12:17:35;;;;;;;7.80;3.35;;;28.40;42.30;;;;;;5088201;28;20400;-89
2023/06/07 12:20:11;;;;;;;9.90;2.97;;;28.30;44.40;;;;;;5122517;28;20759;-89
2023/06/07 12:22:37;;;;;;;7.88;3.20;;;28.20;43.90;;;;;;5069992;28;20404;-88
2023/06/07 12:25:11;;;;;;;8.85;3.90;;;28.10;41.20;;;;;;5071107;28;20926;-87
2023/06/07 12:27:37;;;;;;;8.83;3.30;;;27.80;41.60;;;;;;5070033;28;20465;-89
2023/06/07 12:30:09;;;;;;;7.65;3.17;;;27.60;43.40;;;;;;5071218;28;20416;-89
2023/06/07 12:32:34;;;;;;;9.32;3.55;;;27.70;44.10;;;;;;5121420;27;20409;-89
2023/06/07 12:35:07;;;;;;;9.80;3.60;;;27.50;44.20;;;;;;5088193;28;20465;-88
2023/06/07 12:37:37;;;;;;;7.80;3.58;;;27.40;43.70;;;;;;5071261;28;20914;-89
2023/06/07 12:40:07;;;;;;;7.15;2.72;;;27.50;44.40;;;;;;5087524;28;20833;-89
2023/06/07 12:42:34;;;;;;;7.85;2.85;;;27.50;48.20;;;;;;5088195;28;20400;-90
2023/06/07 12:45:01;;;;;;;7.55;3.22;;;27.80;45.50;;;;;;5070033;28;20771;-88